Time;durP1;ratioP1;P1;durP2;ratioP2;P2;SDS_P1;SDS_P2;PMS_P1;PMS_P2;Temp;Humidity;BMP_temperature;BMP_pressure;BME280_temperature;BME280_humidity;BME280_pressure;Samples;Min_cycle;Max_cycle;Signal;HPM_P1;HPM_P2
2023/05/17 00:03:26;;;;;;;4.20;3.80;;;;;;;15.41;74.31;98472.09;223456;181;145167;-65
2023/05/17 00:08:29;;;;;;;4.20;3.50;;;;;;;15.45;74.28;98471.88;223461;182;138403;-66
2023/05/17 00:13:32;;;;;;;4.90;3.80;;;;;;;15.45;74.31;98484.10;223407;193;137306;-65
2023/05/17 00:18:35;;;;;;;4.90;3.60;;;;;;;15.53;74.05;98494.15;223587;181;145266;-64
2023/05/17 00:23:38;;;;;;;5.10;3.80;;;;;;;15.52;74.02;98497.85;223662;181;138876;-65
2023/05/17 00:28:41;;;;;;;3.90;3.50;;;;;;;15.57;73.76;98495.80;223791;181;136898;-63
2023/05/17 00:33:46;;;;;;;5.10;4.60;;;;;;;15.50;73.90;98494.83;223712;181;146026;-64
2023/05/17 00:38:50;;;;;;;5.00;3.70;;;;;;;15.47;73.86;98495.13;223729;182;138891;-65
2023/05/17 00:43:59;;;;;;;4.60;4.00;;;;;;;15.48;73.98;98485.23;223767;182;137463;-64
2023/05/17 00:49:03;;;;;;;4.40;4.00;;;;;;;15.49;73.91;98478.68;223739;182;145387;-66
2023/05/17 00:54:06;;;;;;;4.70;3.90;;;;;;;15.40;73.99;98481.63;223706;182;138821;-66
2023/05/17 00:59:12;;;;;;;5.20;3.70;;;;;;;15.31;74.26;98487.58;223701;181;139285;-65
2023/05/17 01:04:16;;;;;;;3.90;3.50;;;;;;;15.26;74.44;98477.66;223548;182;145998;-64
2023/05/17 01:09:19;;;;;;;3.70;3.40;;;;;;;15.27;74.52;98480.32;223700;181;138406;-64
2023/05/17 01:14:30;;;;;;;4.00;3.60;;;;;;;15.27;74.29;98489.03;223684;182;138040;-64
2023/05/17 01:19:43;;;;;;;5.20;3.20;;;;;;;15.34;74.26;98487.84;223672;181;147166;-64
2023/05/17 01:24:51;;;;;;;4.40;3.70;;;;;;;15.32;74.02;98497.88;223695;181;138852;-66
2023/05/17 01:29:56;;;;;;;4.90;3.20;;;;;;;15.23;74.02;98512.67;223661;181;136836;-67
2023/05/17 01:34:59;;;;;;;3.70;3.00;;;;;;;15.16;74.39;98512.38;223768;181;147442;-67
2023/05/17 01:40:03;;;;;;;4.60;3.30;;;;;;;15.21;74.38;98505.70;223592;181;137760;-68
2023/05/17 01:45:24;;;;;;;3.50;3.10;;;;;;;15.21;74.27;98514.42;223594;181;137221;-66
2023/05/17 01:50:31;;;;;;;3.40;3.10;;;;;;;15.17;74.38;98510.92;223622;181;146926;-64
2023/05/17 01:55:47;;;;;;;4.00;2.40;;;;;;;15.12;74.31;98492.55;223589;181;138071;-63
2023/05/17 02:00:56;;;;;;;2.40;2.20;;;;;;;15.11;74.47;98507.63;223638;181;137187;-64
2023/05/17 02:06:00;;;;;;;3.00;2.70;;;;;;;15.07;74.40;98518.35;223690;181;259517;-65
2023/05/17 02:11:03;;;;;;;2.40;2.20;;;;;;;15.01;74.40;98524.12;223798;182;138501;-64
2023/05/17 02:16:06;;;;;;;3.30;1.80;;;;;;;14.95;74.49;98531.75;223725;182;136899;-64
2023/05/17 02:21:09;;;;;;;1.70;1.60;;;;;;;14.93;74.72;98534.95;223638;182;147636;-64
2023/05/17 02:26:13;;;;;;;2.30;2.00;;;;;;;14.95;74.70;98541.20;223741;181;138486;-64
2023/05/17 02:31:16;;;;;;;1.60;1.50;;;;;;;14.99;74.51;98541.08;223652;181;136973;-65
2023/05/17 02:36:19;;;;;;;2.20;1.90;;;;;;;14.94;74.44;98542.35;223682;181;147546;-63
2023/05/17 02:41:22;;;;;;;1.30;1.20;;;;;;;14.91;74.75;98537.85;223634;181;139807;-64
2023/05/17 02:46:25;;;;;;;2.20;1.30;;;;;;;14.87;74.82;98524.61;223630;182;138122;-63
2023/05/17 02:51:28;;;;;;;3.00;1.50;;;;;;;14.95;74.87;98516.01;223625;181;146975;-62
2023/05/17 02:56:32;;;;;;;1.30;1.20;;;;;;;14.97;74.58;98524.14;223659;181;138751;-62
2023/05/17 03:01:36;;;;;;;2.60;1.40;;;;;;;14.92;74.48;98516.15;223600;182;138978;-62
2023/05/17 03:06:40;;;;;;;1.20;1.10;;;;;;;14.83;74.67;98508.13;223500;182;148448;-63
2023/05/17 03:11:44;;;;;;;1.60;1.10;;;;;;;14.78;74.42;98497.50;223709;181;138075;-62
2023/05/17 03:16:53;;;;;;;1.20;1.10;;;;;;;14.69;74.29;98512.58;223770;181;140400;-61
2023/05/17 03:21:57;;;;;;;5.40;1.20;;;;;;;14.62;74.33;98529.26;223696;182;146975;-61
2023/05/17 03:27:01;;;;;;;0.90;0.90;;;;;;;14.57;74.46;98529.66;223657;182;138951;-62
2023/05/17 03:32:04;;;;;;;1.90;1.00;;;;;;;14.55;74.43;98530.30;223632;181;140584;-61
2023/05/17 03:37:07;;;;;;;1.50;1.00;;;;;;;14.53;74.60;98525.98;223637;181;147157;-62
2023/05/17 03:42:11;;;;;;;2.20;1.00;;;;;;;14.51;74.48;98533.48;223643;181;140671;-61
2023/05/17 03:47:15;;;;;;;1.00;0.90;;;;;;;14.41;74.51;98539.27;223734;182;137959;-61
2023/05/17 03:52:18;;;;;;;1.40;1.00;;;;;;;14.40;74.69;98551.67;223638;182;147116;-62
2023/05/17 03:57:23;;;;;;;1.10;1.00;;;;;;;14.42;74.71;98551.52;223130;181;138995;-61
2023/05/17 04:02:26;;;;;;;1.30;1.10;;;;;;;14.36;74.68;98554.34;223735;181;137895;-62
2023/05/17 04:07:29;;;;;;;1.40;0.90;;;;;;;14.31;74.98;98570.48;223663;182;147094;-62
2023/05/17 04:12:32;;;;;;;1.10;1.00;;;;;;;14.34;75.08;98588.94;223652;181;138828;-62
2023/05/17 04:17:36;;;;;;;6.20;5.60;;;;;;;14.36;75.13;98596.94;223728;182;136829;-62
2023/05/17 04:22:39;;;;;;;1.20;1.00;;;;;;;14.43;75.10;98609.61;223714;178;146960;-63
2023/05/17 04:27:46;;;;;;;3.90;3.20;;;;;;;14.47;74.92;98617.86;223567;182;139239;-63
2023/05/17 04:32:50;;;;;;;2.20;1.30;;;;;;;14.50;75.00;98617.25;223684;182;138566;-62
2023/05/17 04:37:54;;;;;;;2.20;1.00;;;;;;;14.50;74.89;98627.05;223578;181;147619;-66
2023/05/17 04:42:57;;;;;;;1.60;1.00;;;;;;;14.48;75.14;98627.91;223627;181;139498;-68
2023/05/17 04:48:01;;;;;;;16.00;12.70;;;;;;;14.50;75.19;98628.67;223601;182;137742;-67
2023/05/17 04:53:05;;;;;;;2.40;1.00;;;;;;;14.55;75.30;98633.45;223714;182;147633;-62
2023/05/17 04:58:10;;;;;;;1.20;0.90;;;;;;;14.61;75.25;98626.45;223637;182;138149;-64
2023/05/17 05:03:13;;;;;;;1.00;0.90;;;;;;;14.57;75.23;98621.27;223674;182;137265;-64
2023/05/17 05:08:17;;;;;;;2.30;0.70;;;;;;;14.51;75.52;98616.27;223682;182;147651;-64
2023/05/17 05:13:21;;;;;;;1.60;0.80;;;;;;;14.50;75.85;98620.33;223661;182;138858;-64
2023/05/17 05:18:26;;;;;;;0.70;0.70;;;;;;;14.58;75.73;98622.96;223614;182;137583;-63
2023/05/17 05:23:31;;;;;;;1.20;1.10;;;;;;;14.57;75.66;98616.66;223718;182;146964;-65
2023/05/17 05:28:36;;;;;;;0.90;0.60;;;;;;;14.58;75.62;98609.95;223675;181;139724;-62
2023/05/17 05:33:39;;;;;;;0.60;0.50;;;;;;;14.60;75.63;98621.54;223712;182;137949;-63
2023/05/17 05:38:43;;;;;;;3.40;0.90;;;;;;;14.65;75.76;98638.10;223690;182;147100;-65
2023/05/17 05:43:46;;;;;;;0.70;0.70;;;;;;;14.69;75.46;98641.33;223634;182;138382;-62
2023/05/17 05:48:49;;;;;;;274.50;208.40;;;;;;;14.70;75.45;98646.83;223482;182;137112;-66
2023/05/17 05:53:52;;;;;;;3.60;2.60;;;;;;;14.67;75.64;98647.02;223527;181;147445;-66
2023/05/17 05:58:56;;;;;;;0.80;0.80;;;;;;;14.68;75.61;98654.86;223695;181;139009;-67
2023/05/17 06:04:00;;;;;;;1.20;0.80;;;;;;;14.73;75.72;98665.52;223526;181;138520;-66
2023/05/17 06:09:05;;;;;;;0.70;0.70;;;;;;;14.76;75.46;98674.73;223533;181;148510;-62
2023/05/17 06:14:08;;;;;;;0.90;0.80;;;;;;;14.75;75.34;98680.34;223547;182;140806;-63
2023/05/17 06:19:12;;;;;;;1.00;0.70;;;;;;;14.69;75.53;98685.11;223603;181;137446;-70
2023/05/17 06:24:15;;;;;;;0.90;0.60;;;;;;;14.70;75.79;98685.73;223681;181;147074;-67
2023/05/17 06:29:18;;;;;;;0.70;0.50;;;;;;;14.82;75.47;98689.67;223715;181;138715;-65
2023/05/17 06:34:22;;;;;;;0.80;0.60;;;;;;;14.88;74.96;98690.44;223694;181;139637;-65
2023/05/17 06:39:25;;;;;;;1.50;0.60;;;;;;;14.86;74.75;98703.97;223704;181;146939;-65
2023/05/17 06:44:28;;;;;;;59.70;50.60;;;;;;;14.82;74.94;98708.63;223556;181;138506;-64
2023/05/17 06:49:31;;;;;;;3.30;1.30;;;;;;;14.80;74.91;98710.92;223642;181;137414;-64
2023/05/17 06:54:34;;;;;;;1.90;1.00;;;;;;;14.80;74.86;98711.67;223713;181;147134;-64
2023/05/17 06:59:37;;;;;;;1.70;0.80;;;;;;;14.76;74.96;98715.03;223596;181;138940;-64
2023/05/17 07:04:40;;;;;;;2.10;0.80;;;;;;;14.76;75.08;98716.48;223583;181;138262;-65
2023/05/17 07:09:44;;;;;;;29.40;25.60;;;;;;;14.78;75.21;98718.23;223624;181;148471;-67
2023/05/17 07:14:47;;;;;;;1.90;1.00;;;;;;;14.84;75.15;98722.39;223641;182;139162;-66
2023/05/17 07:19:50;;;;;;;1.00;0.90;;;;;;;14.82;74.90;98724.67;223706;181;137062;-66
2023/05/17 07:24:54;;;;;;;1.20;0.90;;;;;;;14.76;74.74;98722.02;223686;179;147592;-66
2023/05/17 07:29:57;;;;;;;1.10;1.00;;;;;;;14.67;75.05;98736.72;223662;181;139009;-68
2023/05/17 07:35:01;;;;;;;0.80;0.80;;;;;;;14.74;75.19;98753.81;223792;181;136913;-66
2023/05/17 07:40:05;;;;;;;2.80;1.00;;;;;;;14.77;75.19;98762.83;223633;181;146795;-68
2023/05/17 07:45:09;;;;;;;1.10;1.00;;;;;;;14.76;75.35;98771.63;223639;182;139061;-66
2023/05/17 07:50:12;;;;;;;2.50;0.90;;;;;;;14.77;75.48;98773.05;223597;182;140376;-67
2023/05/17 07:55:16;;;;;;;2.00;1.20;;;;;;;14.88;75.38;98771.86;223676;181;147032;-66
2023/05/17 08:00:20;;;;;;;1.50;1.10;;;;;;;14.93;75.08;98779.17;223632;181;138077;-68
2023/05/17 08:05:23;;;;;;;4.30;1.00;;;;;;;14.93;75.06;98782.41;223717;181;137327;-68
2023/05/17 08:10:26;;;;;;;0.90;0.80;;;;;;;14.89;75.02;98800.52;223687;181;146937;-67
2023/05/17 08:15:29;;;;;;;1.10;0.90;;;;;;;14.85;75.17;98809.86;223681;181;138437;-68
2023/05/17 08:20:33;;;;;;;1.10;0.90;;;;;;;14.79;75.25;98812.64;223619;182;136887;-66
2023/05/17 08:25:36;;;;;;;1.00;0.90;;;;;;;14.74;75.46;98814.02;223639;181;147120;-67
2023/05/17 08:30:40;;;;;;;1.20;0.90;;;;;;;14.71;75.48;98804.77;223669;181;138952;-66
2023/05/17 08:35:43;;;;;;;2.40;1.10;;;;;;;14.75;75.28;98799.60;223572;182;137174;-67
2023/05/17 08:41:06;;;;;;;1.00;0.90;;;;;;;14.78;75.29;98805.05;223683;181;146875;-66
2023/05/17 08:46:20;;;;;;;1.10;0.90;;;;;;;14.81;75.42;98814.05;223538;182;139737;-66
2023/05/17 08:51:23;;;;;;;1.00;0.70;;;;;;;14.86;75.41;98821.75;223700;182;137448;-67
2023/05/17 08:56:28;;;;;;;1.80;0.80;;;;;;;14.88;75.34;98824.58;223680;181;147151;-69
2023/05/17 09:01:32;;;;;;;1.30;1.00;;;;;;;14.90;75.23;98831.05;223667;181;138635;-71
2023/05/17 09:06:36;;;;;;;1.40;1.20;;;;;;;14.89;74.93;98835.23;223566;181;136848;-69
2023/05/17 09:11:39;;;;;;;3.20;1.60;;;;;;;14.89;74.84;98848.09;223725;182;149040;-66
2023/05/17 09:16:42;;;;;;;1.80;1.10;;;;;;;14.92;75.04;98856.76;223650;182;138731;-70
2023/05/17 09:21:46;;;;;;;2.10;1.30;;;;;;;14.99;74.32;98868.92;223642;181;138523;-69
2023/05/17 09:26:49;;;;;;;1.40;1.30;;;;;;;15.00;74.08;98876.66;223715;182;147106;-67
2023/05/17 09:31:53;;;;;;;3.20;1.30;;;;;;;15.02;74.05;98884.75;223709;181;139111;-69
2023/05/17 09:36:56;;;;;;;2.20;1.60;;;;;;;14.94;73.82;98893.28;223634;181;140434;-69
2023/05/17 09:42:00;;;;;;;2.90;1.40;;;;;;;14.88;73.54;98909.73;223650;181;147129;-70
2023/05/17 09:47:03;;;;;;;2.90;1.50;;;;;;;14.81;73.64;98915.34;223702;181;140223;-65
2023/05/17 09:52:07;;;;;;;2.20;1.70;;;;;;;14.81;73.88;98924.66;223542;182;138073;-70
2023/05/17 09:57:10;;;;;;;35.60;29.70;;;;;;;14.81;73.96;98930.76;223517;181;147656;-68
2023/05/17 10:02:21;;;;;;;2.70;2.00;;;;;;;14.77;73.84;98940.13;223655;182;138742;-68
2023/05/17 10:07:25;;;;;;;3.00;2.40;;;;;;;14.70;73.40;98950.95;223576;182;137469;-67
2023/05/17 10:12:32;;;;;;;4.40;2.20;;;;;;;14.62;72.84;98957.80;223636;182;147118;-68
2023/05/17 10:17:38;;;;;;;3.10;2.30;;;;;;;14.48;72.92;98958.33;223652;182;138326;-67
2023/05/17 10:22:41;;;;;;;;;;;;;;;14.40;73.25;98965.23;223633;181;138636;-64
2023/05/17 10:27:46;;;;;;;4.50;2.80;;;;;;;14.38;73.24;98973.41;223651;181;148150;-67
2023/05/17 10:32:49;;;;;;;3.20;2.30;;;;;;;14.43;73.03;98966.81;223644;182;139540;-67
2023/05/17 10:37:53;;;;;;;2.70;2.00;;;;;;;14.40;72.93;98961.67;223697;182;137132;-67
2023/05/17 10:42:57;;;;;;;3.30;2.10;;;;;;;14.35;72.64;98965.94;223584;181;147604;-68
2023/05/17 10:48:04;;;;;;;3.60;2.20;;;;;;;14.31;72.90;98964.69;223595;181;141435;-69
2023/05/17 10:53:11;;;;;;;3.30;2.20;;;;;;;14.36;72.92;98971.79;223639;182;137416;-68
2023/05/17 10:58:15;;;;;;;3.60;2.60;;;;;;;14.40;72.46;98975.57;223593;181;146927;-67
2023/05/17 11:03:21;;;;;;;135.90;100.80;;;;;;;14.38;72.23;98971.09;223625;182;138772;-67
2023/05/17 11:08:24;;;;;;;3.20;2.50;;;;;;;14.38;72.14;98981.60;223637;182;141125;-67
2023/05/17 11:13:27;;;;;;;3.50;1.90;;;;;;;14.31;71.84;98983.96;223684;182;148683;-66
2023/05/17 11:18:56;;;;;;;5.20;2.00;;;;;;;14.26;71.99;98988.08;223583;182;138346;-67
2023/05/17 11:24:02;;;;;;;2.50;2.30;;;;;;;14.26;71.95;98992.54;223382;182;231623;-67
2023/05/17 11:29:09;;;;;;;2.60;2.00;;;;;;;14.30;71.88;98995.48;223525;214;147009;-67
2023/05/17 11:34:12;;;;;;;2.60;1.90;;;;;;;14.27;71.84;98994.46;223479;181;140653;-66
2023/05/17 11:39:19;;;;;;;3.40;2.10;;;;;;;14.20;71.93;99003.90;223403;182;138643;-67
2023/05/17 11:44:30;;;;;;;3.50;1.80;;;;;;;14.15;71.98;99008.90;223506;181;147701;-66
2023/05/17 11:49:37;;;;;;;1.90;1.70;;;;;;;14.13;71.98;99011.58;223507;182;140785;-66
2023/05/17 11:54:42;;;;;;;7.70;7.00;;;;;;;14.09;71.81;99017.96;223406;182;138939;-66
2023/05/17 11:59:45;;;;;;;3.00;1.80;;;;;;;14.12;72.26;99022.71;223544;214;147874;-67
2023/05/17 12:04:48;;;;;;;2.80;1.40;;;;;;;14.13;71.82;99025.48;223347;181;138528;-67
2023/05/17 12:09:51;;;;;;;1.80;1.50;;;;;;;14.10;71.74;99029.29;223426;182;139567;-68
2023/05/17 12:14:55;;;;;;;1.90;1.30;;;;;;;14.02;71.65;99030.07;223432;181;147203;-69
2023/05/17 12:20:08;;;;;;;2.00;1.50;;;;;;;14.02;71.81;99032.83;223312;182;139300;-68
2023/05/17 12:25:24;;;;;;;2.50;1.60;;;;;;;14.05;71.92;99028.45;223382;181;137745;-68
2023/05/17 12:30:27;;;;;;;2.10;1.90;;;;;;;14.02;72.10;99026.71;223428;182;147154;-68
2023/05/17 12:35:31;;;;;;;2.70;1.80;;;;;;;14.01;72.52;99030.52;221410;208;138358;-70
2023/05/17 12:40:35;;;;;;;3.70;1.90;;;;;;;13.93;72.52;99035.90;222421;181;136855;-66
2023/05/17 12:45:41;;;;;;;4.00;2.00;;;;;;;13.86;72.69;99042.77;220895;182;148067;-65
2023/05/17 12:50:45;;;;;;;3.80;2.20;;;;;;;13.89;72.78;99048.04;223440;182;138377;-66
2023/05/17 12:55:48;;;;;;;1.80;1.40;;;;;;;13.89;72.52;99059.80;223390;182;137955;-67
2023/05/17 13:01:01;;;;;;;2.60;1.60;;;;;;;13.89;71.99;99073.14;223413;182;149102;-67
2023/05/17 13:06:08;;;;;;;3.70;1.70;;;;;;;13.83;71.83;99088.05;223506;181;138194;-67
2023/05/17 13:11:13;;;;;;;3.20;1.40;;;;;;;13.70;71.67;99093.27;223553;198;136470;-67
2023/05/17 13:16:16;;;;;;;5.10;3.00;;;;;;;13.65;71.39;99101.39;223523;181;147602;-69
2023/05/17 13:21:20;;;;;;;3.20;1.90;;;;;;;13.60;70.72;99109.27;223369;183;139968;-69
2023/05/17 13:26:23;;;;;;;2.80;1.90;;;;;;;13.52;71.04;99107.27;223603;182;138602;-68
2023/05/17 13:31:27;;;;;;;4.00;2.10;;;;;;;13.46;71.38;99113.81;223429;183;147885;-70
2023/05/17 13:36:30;;;;;;;10.90;2.40;;;;;;;13.34;71.01;99132.11;223408;182;140476;-69
2023/05/17 13:41:43;;;;;;;4.50;2.20;;;;;;;13.24;70.90;99142.06;223476;204;136514;-68
2023/05/17 13:46:46;;;;;;;5.00;2.40;;;;;;;13.16;70.81;99151.41;223390;214;147981;-70
2023/05/17 13:51:49;;;;;;;6.80;2.70;;;;;;;13.11;70.94;99165.68;223369;182;140591;-68
2023/05/17 13:56:54;;;;;;;6.90;2.90;;;;;;;13.03;70.48;99168.33;223433;184;140415;-67
2023/05/17 14:01:57;;;;;;;6.90;2.60;;;;;;;12.93;70.94;99173.31;223382;182;147151;-69
2023/05/17 14:07:02;;;;;;;58.10;38.40;;;;;;;12.83;71.17;99182.76;223361;182;138715;-69
2023/05/17 14:12:05;;;;;;;10.20;4.90;;;;;;;12.79;71.29;99193.83;223358;182;140809;-68
2023/05/17 14:17:08;;;;;;;5.50;2.70;;;;;;;12.74;71.07;99207.55;223558;183;146772;-69
2023/05/17 14:22:12;;;;;;;7.00;2.40;;;;;;;12.77;70.76;99211.98;223406;196;139883;-68
2023/05/17 14:27:15;;;;;;;4.80;2.40;;;;;;;12.85;70.43;99220.89;223459;181;140898;-70
2023/05/17 14:32:18;;;;;;;8.00;2.60;;;;;;;12.91;70.10;99221.21;223084;182;147755;-69
2023/05/17 14:37:24;;;;;;;6.20;2.10;;;;;;;12.89;70.01;99226.85;223347;182;140037;-69
2023/05/17 14:42:27;;;;;;;4.00;2.10;;;;;;;12.85;69.71;99228.88;223352;208;137532;-70
2023/05/17 14:47:30;;;;;;;5.20;2.30;;;;;;;12.76;70.18;99231.60;223497;183;148080;-68
2023/05/17 14:52:35;;;;;;;4.40;2.30;;;;;;;12.69;70.36;99236.19;223409;181;138259;-69
2023/05/17 14:57:38;;;;;;;6.20;2.70;;;;;;;12.70;70.21;99233.31;223394;181;138403;-68
2023/05/17 15:02:42;;;;;;;7.90;2.90;;;;;;;12.75;70.15;99236.67;223447;182;147648;-67
2023/05/17 15:07:46;;;;;;;6.30;2.40;;;;;;;12.77;70.26;99241.19;223417;182;138198;-66
2023/05/17 15:12:49;;;;;;;5.00;3.10;;;;;;;12.75;70.19;99241.66;223399;182;137172;-66
2023/05/17 15:17:52;;;;;;;5.60;2.70;;;;;;;12.72;70.25;99251.11;223521;182;146802;-68
2023/05/17 15:22:56;;;;;;;10.30;8.40;;;;;;;12.67;70.37;99265.02;223440;181;138414;-66
2023/05/17 15:27:59;;;;;;;6.90;3.00;;;;;;;12.72;70.65;99270.39;223538;181;139111;-68
2023/05/17 15:33:02;;;;;;;6.50;3.20;;;;;;;12.72;70.66;99279.08;223422;181;146862;-69
2023/05/17 15:38:05;;;;;;;5.60;3.60;;;;;;;12.73;70.67;99284.01;223492;181;139355;-69
2023/05/17 15:48:10;;;;;;;8.40;3.20;;;;;;;12.77;70.29;99283.92;219468;192;665784;-68
2023/05/17 15:53:13;;;;;;;7.20;3.40;;;;;;;12.72;70.11;99287.27;223510;185;136531;-68
2023/05/17 15:58:17;;;;;;;7.00;3.60;;;;;;;12.69;70.18;99296.56;223469;183;143515;-67
2023/05/17 16:03:20;;;;;;;6.30;3.20;;;;;;;12.65;69.84;99299.68;223394;184;139084;-66
2023/05/17 16:08:24;;;;;;;7.80;3.00;;;;;;;12.58;70.20;99302.11;223474;183;137341;-66
2023/05/17 16:13:27;;;;;;;7.20;3.30;;;;;;;12.54;70.47;99302.84;223413;184;146152;-64
2023/05/17 16:18:31;;;;;;;7.90;3.20;;;;;;;12.57;70.80;99303.42;223427;184;138599;-65
2023/05/17 16:23:36;;;;;;;6.50;3.50;;;;;;;12.56;70.53;99305.06;223439;217;140222;-65
2023/05/17 16:28:39;;;;;;;11.40;5.30;;;;;;;12.55;70.49;99314.92;223465;185;143371;-64
2023/05/17 16:33:42;;;;;;;6.40;3.40;;;;;;;12.51;70.57;99320.68;223408;183;138739;-64
2023/05/17 16:38:45;;;;;;;5.50;3.80;;;;;;;12.41;70.78;99322.76;223449;183;137751;-64
2023/05/17 16:43:48;;;;;;;8.70;4.00;;;;;;;12.38;71.10;99329.01;223387;183;145280;-65
2023/05/17 16:48:52;;;;;;;6.90;3.70;;;;;;;12.37;71.40;99335.52;223057;184;138491;-64
2023/05/17 16:53:55;;;;;;;7.70;4.60;;;;;;;12.46;71.49;99342.38;223413;198;137411;-66
2023/05/17 17:01:58;;;;;;;10.70;4.90;;;;;;;12.63;71.63;99354.84;219256;197;676452;-64
2023/05/17 17:07:01;;;;;;;9.20;4.50;;;;;;;12.59;71.50;99352.08;222960;184;136234;-65
2023/05/17 17:12:05;;;;;;;7.40;4.40;;;;;;;12.50;71.67;99348.86;223447;183;143366;-65
2023/05/17 17:17:25;;;;;;;9.20;4.70;;;;;;;12.46;71.95;99351.63;223456;205;138113;-66
2023/05/17 17:22:28;;;;;;;7.80;4.70;;;;;;;12.47;72.05;99357.80;223462;183;137153;-65
2023/05/17 17:27:31;;;;;;;14.10;6.70;;;;;;;12.51;72.44;99363.59;223412;187;143971;-68
2023/05/17 17:32:34;;;;;;;9.50;5.80;;;;;;;12.60;72.79;99377.08;223388;184;139334;-69
2023/05/17 17:37:37;;;;;;;12.30;6.90;;;;;;;12.29;73.05;99381.70;223407;183;138327;-68
2023/05/17 17:42:41;;;;;;;9.20;5.10;;;;;;;12.47;75.29;99382.89;223548;181;144173;-68
2023/05/17 17:47:44;;;;;;;11.10;7.00;;;;;;;12.54;73.11;99385.08;223435;215;138547;-65
2023/05/17 17:52:48;;;;;;;8.60;5.50;;;;;;;12.49;73.06;99388.80;223490;182;137281;-67
2023/05/17 17:57:51;;;;;;;11.50;5.40;;;;;;;12.55;73.00;99390.71;223486;181;146149;-67
2023/05/17 18:02:55;;;;;;;11.30;5.60;;;;;;;12.59;72.84;99389.96;223382;181;138321;-67
2023/05/17 18:07:58;;;;;;;10.90;6.00;;;;;;;12.56;72.76;99388.87;223399;181;137672;-68
2023/05/17 18:13:02;;;;;;;9.20;5.60;;;;;;;12.53;72.78;99388.02;223538;181;146636;-67
2023/05/17 18:18:05;;;;;;;11.20;5.40;;;;;;;12.48;72.73;99393.53;223385;183;139841;-68
2023/05/17 18:23:08;;;;;;;12.80;5.50;;;;;;;12.51;72.66;99404.55;223445;181;137611;-67
2023/05/17 18:28:11;;;;;;;11.80;5.80;;;;;;;12.56;72.38;99404.89;223451;182;145672;-67
2023/05/17 18:33:14;;;;;;;9.30;5.00;;;;;;;12.61;71.89;99410.64;223429;182;138381;-67
2023/05/17 18:38:18;;;;;;;12.20;5.80;;;;;;;12.59;71.63;99419.14;223346;182;136634;-67
2023/05/17 18:43:21;;;;;;;11.70;5.40;;;;;;;12.55;71.39;99429.73;223407;182;146461;-67
2023/05/17 18:48:25;;;;;;;12.40;6.50;;;;;;;12.51;71.10;99441.02;223440;183;138468;-67
2023/05/17 18:53:28;;;;;;;14.20;5.30;;;;;;;12.47;70.84;99447.70;223547;180;139838;-66
2023/05/17 18:58:31;;;;;;;11.40;5.10;;;;;;;12.48;71.05;99448.34;223452;182;145777;-67
2023/05/17 19:03:35;;;;;;;11.10;5.70;;;;;;;12.46;70.92;99457.17;223411;182;139516;-66
2023/05/17 19:08:38;;;;;;;10.90;5.90;;;;;;;12.41;71.19;99459.77;223430;208;137196;-67
2023/05/17 19:13:42;;;;;;;12.40;6.10;;;;;;;12.40;71.28;99465.20;223453;183;145146;-66
2023/05/17 19:18:45;;;;;;;13.90;6.00;;;;;;;12.38;71.39;99462.46;223420;182;138393;-67
2023/05/17 19:23:48;;;;;;;11.40;5.80;;;;;;;12.30;71.64;99463.84;223395;195;137029;-66
2023/05/17 19:28:51;;;;;;;13.90;5.90;;;;;;;12.26;71.83;99465.37;223382;182;145195;-67
2023/05/17 19:33:55;;;;;;;11.60;6.00;;;;;;;12.26;72.04;99468.70;223399;182;138436;-65
2023/05/17 19:38:59;;;;;;;15.10;7.10;;;;;;;12.31;71.97;99473.39;223374;182;137038;-67
2023/05/17 19:44:02;;;;;;;250.30;176.30;;;;;;;12.36;72.68;99475.21;223471;182;146097;-65
2023/05/17 19:49:05;;;;;;;12.70;7.30;;;;;;;12.52;72.76;99473.17;223338;181;140254;-67
2023/05/17 19:54:08;;;;;;;13.90;6.80;;;;;;;12.51;72.02;99479.59;223254;182;137492;-67
2023/05/17 19:59:11;;;;;;;10.20;6.30;;;;;;;12.47;72.17;99489.27;223456;182;145881;-67
2023/05/17 20:04:15;;;;;;;14.00;6.50;;;;;;;12.46;72.16;99501.65;223366;181;138265;-67
2023/05/17 20:09:18;;;;;;;14.30;6.80;;;;;;;12.48;72.27;99505.61;223439;182;138569;-66
2023/05/17 20:14:21;;;;;;;25.20;16.40;;;;;;;12.55;72.35;99505.73;222832;181;145260;-66
2023/05/17 20:19:25;;;;;;;15.30;7.10;;;;;;;12.58;72.28;99510.16;223674;181;149924;-66
2023/05/17 20:24:28;;;;;;;14.20;7.40;;;;;;;12.46;72.38;99516.44;223752;181;136909;-66
2023/05/17 20:29:31;;;;;;;13.10;8.50;;;;;;;12.42;72.94;99518.43;223708;181;145176;-64
2023/05/17 20:34:34;;;;;;;12.50;6.40;;;;;;;12.44;73.33;99522.97;223622;182;138246;-66
2023/05/17 20:39:37;;;;;;;9.30;6.40;;;;;;;12.42;73.04;99522.73;223659;181;140847;-66
2023/05/17 20:44:44;;;;;;;13.80;7.60;;;;;;;12.43;73.19;99521.96;223750;182;146683;-65
2023/05/17 20:49:49;;;;;;;12.90;8.00;;;;;;;12.41;73.21;99524.60;223625;182;138428;-66
2023/05/17 20:54:52;;;;;;;13.90;7.30;;;;;;;12.38;73.26;99528.30;223647;182;137544;-65
2023/05/17 20:59:56;;;;;;;12.70;7.20;;;;;;;12.36;73.41;99528.27;223642;182;145754;-67
2023/05/17 21:04:59;;;;;;;13.20;8.30;;;;;;;12.33;73.54;99524.55;223663;182;138841;-65
2023/05/17 21:10:03;;;;;;;13.80;8.20;;;;;;;12.27;73.71;99522.20;223694;182;137100;-65
2023/05/17 21:15:07;;;;;;;14.40;7.40;;;;;;;12.28;73.83;99526.29;223717;181;146498;-67
2023/05/17 21:20:30;;;;;;;12.20;7.80;;;;;;;12.30;73.90;99527.52;223753;182;138838;-66
2023/05/17 21:25:33;;;;;;;14.70;8.20;;;;;;;12.36;73.89;99528.79;223657;182;137832;-66
2023/05/17 21:30:36;;;;;;;14.00;8.10;;;;;;;12.37;73.75;99525.36;223680;181;145714;-67
2023/05/17 21:35:40;;;;;;;13.20;8.30;;;;;;;12.34;73.76;99529.09;223678;181;138828;-67
2023/05/17 21:40:43;;;;;;;15.60;10.40;;;;;;;12.30;73.84;99530.73;223671;182;136826;-67
2023/05/17 21:45:46;;;;;;;13.30;8.20;;;;;;;12.30;73.98;99536.09;223746;181;144979;-67
2023/05/17 21:50:49;;;;;;;14.30;7.30;;;;;;;12.29;73.83;99538.27;223841;182;139753;-66
2023/05/17 21:55:52;;;;;;;15.40;8.10;;;;;;;12.36;73.85;99542.36;223670;181;137503;-67
2023/05/17 22:01:05;;;;;;;16.20;8.70;;;;;;;12.37;73.75;99544.36;223707;181;145630;-67
2023/05/17 22:06:08;;;;;;;16.10;8.70;;;;;;;12.39;73.74;99541.45;223620;182;138925;-66
2023/05/17 22:11:12;;;;;;;13.40;8.40;;;;;;;12.41;73.62;99541.27;223727;182;137040;-66
2023/05/17 22:16:17;;;;;;;16.30;7.60;;;;;;;12.40;73.50;99540.30;223748;182;145307;-66
2023/05/17 22:21:21;;;;;;;15.00;8.10;;;;;;;12.36;73.30;99540.04;223715;182;138391;-66
2023/05/17 22:26:24;;;;;;;14.00;7.20;;;;;;;12.30;73.36;99545.33;223792;182;138125;-65
2023/05/17 22:31:27;;;;;;;18.10;9.50;;;;;;;12.31;73.44;99546.91;223724;182;145598;-66
2023/05/17 22:36:31;;;;;;;13.50;7.50;;;;;;;12.33;73.48;99549.44;223713;183;138062;-67
2023/05/17 22:41:34;;;;;;;13.30;7.40;;;;;;;12.33;73.16;99542.68;223773;182;137588;-67
2023/05/17 22:46:40;;;;;;;18.10;7.50;;;;;;;12.25;73.17;99544.42;223631;181;147305;-67
2023/05/17 22:51:44;;;;;;;13.50;7.50;;;;;;;12.21;73.14;99545.16;223640;182;138129;-66
2023/05/17 22:56:47;;;;;;;14.30;6.90;;;;;;;12.24;73.10;99542.16;223723;182;137302;-66
2023/05/17 23:01:50;;;;;;;15.80;7.10;;;;;;;12.28;73.00;99543.48;223649;181;145405;-65
2023/05/17 23:07:01;;;;;;;16.90;7.40;;;;;;;12.37;72.55;99542.06;223602;182;139049;-65
2023/05/17 23:12:05;;;;;;;15.60;7.60;;;;;;;12.36;72.43;99538.92;223738;181;142968;-66
2023/05/17 23:17:08;;;;;;;14.20;6.60;;;;;;;12.33;72.40;99536.66;223689;182;283758;-65
2023/05/17 23:22:11;;;;;;;12.30;6.50;;;;;;;12.27;72.46;99535.57;223750;182;139183;-66
2023/05/17 23:27:17;;;;;;;14.20;7.00;;;;;;;12.20;72.44;99533.48;223790;182;138049;-67
2023/05/17 23:32:20;;;;;;;11.70;6.60;;;;;;;12.16;72.46;99533.20;223678;181;146399;-67
2023/05/17 23:37:24;;;;;;;20.10;6.20;;;;;;;12.15;72.47;99530.28;223736;182;138306;-66